createdAt,value
2022-12-24T00:01:57.598Z,99064.78
2022-12-24T00:04:27.361Z,99067.22
2022-12-24T00:06:56.720Z,99066.53
2022-12-24T00:09:26.552Z,99074.84
2022-12-24T00:11:56.230Z,99081.38
2022-12-24T00:14:26.492Z,99073.31
2022-12-24T00:16:56.314Z,99077.75
2022-12-24T00:19:25.683Z,99079.22
2022-12-24T00:21:55.342Z,99087.56
2022-12-24T00:24:24.990Z,99077.75
2022-12-24T00:26:54.417Z,99086.81
2022-12-24T00:29:24.074Z,99074.22
2022-12-24T00:31:54.001Z,99085.00
2022-12-24T00:34:26.027Z,99093.97
2022-12-24T00:36:55.870Z,99097.50
2022-12-24T00:39:25.483Z,99102.66
2022-12-24T00:41:54.904Z,99098.00
2022-12-24T00:44:24.598Z,99093.13
2022-12-24T00:46:54.172Z,99095.06
2022-12-24T00:49:23.786Z,99091.75
2022-12-24T00:51:53.965Z,99090.94
2022-12-24T00:54:23.678Z,99098.50
2022-12-24T00:56:53.346Z,99089.25
2022-12-24T00:59:23.082Z,99099.25
2022-12-24T01:01:55.961Z,99097.78
2022-12-24T01:04:46.507Z,99100.91
2022-12-24T01:07:18.515Z,99105.50
2022-12-24T01:09:49.690Z,99110.38
2022-12-24T01:12:20.341Z,99107.00
2022-12-24T01:14:51.144Z,99112.44
2022-12-24T01:17:21.653Z,99119.44
2022-12-24T01:19:52.049Z,99116.78
2022-12-24T01:22:23.318Z,99122.13
2022-12-24T01:24:53.835Z,99129.78
2022-12-24T01:27:24.213Z,99128.16
2022-12-24T01:29:54.557Z,99131.13
2022-12-24T01:32:24.557Z,99133.59
2022-12-24T01:34:54.861Z,99130.69
2022-12-24T01:37:25.575Z,99129.72
2022-12-24T01:40:15.569Z,99131.56
2022-12-24T01:43:08.530Z,99135.13
2022-12-24T01:45:47.358Z,99138.63
2022-12-24T01:48:20.470Z,99140.59
2022-12-24T01:50:57.756Z,99144.72
2022-12-24T01:53:28.404Z,99151.50
2022-12-24T01:55:59.208Z,99153.19
2022-12-24T01:58:29.633Z,99157.53
2022-12-24T02:00:59.910Z,99163.84
2022-12-24T02:03:30.475Z,99171.25
2022-12-24T02:06:02.067Z,99170.25
2022-12-24T02:08:41.378Z,99171.25
2022-12-24T02:11:23.166Z,99174.13
2022-12-24T02:14:00.430Z,99176.22
2022-12-24T02:16:36.423Z,99176.03
2022-12-24T02:19:29.586Z,99178.22
2022-12-24T02:22:04.765Z,99179.28
2022-12-24T02:24:58.996Z,99183.69
2022-12-24T02:28:20.411Z,99188.84
2022-12-24T02:31:05.824Z,99189.28
2022-12-24T02:33:40.513Z,99200.56
2022-12-24T02:36:27.399Z,99195.31
2022-12-24T02:39:04.807Z,99200.75
2022-12-24T02:42:01.020Z,99205.06
2022-12-24T02:44:33.656Z,99212.31
2022-12-24T02:47:04.945Z,99214.28
2022-12-24T02:49:34.906Z,99213.97
2022-12-24T02:52:05.556Z,99216.19
2022-12-24T02:54:35.729Z,99223.59
2022-12-24T02:57:08.475Z,99228.78
2022-12-24T02:59:54.400Z,99230.25
2022-12-24T03:02:42.462Z,99239.03
2022-12-24T03:05:38.182Z,99226.69
2022-12-24T03:08:18.558Z,99237.91
2022-12-24T03:10:58.497Z,99244.28
2022-12-24T03:13:30.434Z,99246.91
2022-12-24T03:16:00.993Z,99252.81
2022-12-24T03:18:32.265Z,99249.81
2022-12-24T03:21:32.352Z,99243.63
2022-12-24T03:24:02.991Z,99251.50
2022-12-24T03:26:35.971Z,99250.94
2022-12-24T03:29:10.244Z,99246.63
2022-12-24T03:31:45.580Z,99249.47
2022-12-24T03:34:17.670Z,99254.06
2022-12-24T03:36:49.359Z,99252.59
2022-12-24T03:39:20.156Z,99261.09
2022-12-24T03:41:50.203Z,99258.84
2022-12-24T03:44:20.596Z,99270.28
2022-12-24T03:46:50.467Z,99262.91
2022-12-24T03:49:20.732Z,99275.22
2022-12-24T03:51:50.849Z,99282.75
2022-12-24T03:54:20.981Z,99288.88
2022-12-24T03:56:51.140Z,99296.53
2022-12-24T03:59:22.116Z,99302.41
2022-12-24T04:01:52.401Z,99301.53
2022-12-24T04:04:22.710Z,99309.22
2022-12-24T04:06:52.910Z,99312.75
2022-12-24T04:09:23.484Z,99320.06
2022-12-24T04:11:53.443Z,99327.78
2022-12-24T04:14:23.276Z,99332.97
2022-12-24T04:16:53.698Z,99326.81
2022-12-24T04:19:23.847Z,99326.81
2022-12-24T04:21:53.990Z,99332.47
2022-12-24T04:24:24.496Z,99338.28
2022-12-24T04:26:54.789Z,99334.19
2022-12-24T04:29:24.752Z,99338.22
2022-12-24T04:31:55.067Z,99342.28
2022-12-24T04:34:25.433Z,99342.78
2022-12-24T04:36:55.518Z,99346.06
2022-12-24T04:39:26.098Z,99337.97
2022-12-24T04:41:56.166Z,99338.16
2022-12-24T04:44:26.530Z,99341.00
2022-12-24T04:46:56.732Z,99341.34
2022-12-24T04:49:26.796Z,99337.63
2022-12-24T04:51:56.696Z,99340.53
2022-12-24T04:54:27.007Z,99341.59
2022-12-24T04:56:57.016Z,99340.25
2022-12-24T04:59:27.253Z,99342.03
2022-12-24T05:01:57.571Z,99343.84
2022-12-24T05:04:28.023Z,99339.31
2022-12-24T05:06:57.990Z,99341.69
2022-12-24T05:09:27.943Z,99350.38
2022-12-24T05:11:58.572Z,99350.41
2022-12-24T05:14:28.700Z,99345.25
2022-12-24T05:16:59.070Z,99355.28
2022-12-24T05:19:29.673Z,99353.69
2022-12-24T05:22:18.228Z,99360.78
2022-12-24T05:25:06.392Z,99359.53
2022-12-24T05:27:36.627Z,99357.63
2022-12-24T05:30:07.445Z,99351.75
2022-12-24T05:32:38.154Z,99346.56
2022-12-24T05:38:10.919Z,99350.94
2022-12-24T05:40:40.645Z,99335.38
2022-12-24T05:43:10.320Z,99336.25
2022-12-24T05:45:39.809Z,99336.94
2022-12-24T05:48:09.321Z,99324.13
2022-12-24T05:50:41.793Z,99326.22
2022-12-24T05:53:12.253Z,99311.59
2022-12-24T05:55:41.756Z,99309.03
2022-12-24T05:58:11.138Z,99307.84
2022-12-24T06:00:40.911Z,99304.34
2022-12-24T06:03:10.502Z,99305.41
2022-12-24T06:05:42.527Z,99302.53
2022-12-24T06:08:11.992Z,99299.16
2022-12-24T06:10:41.623Z,99296.59
2022-12-24T06:13:11.193Z,99296.72
2022-12-24T06:15:40.713Z,99291.69
2022-12-24T06:18:10.390Z,99287.34
2022-12-24T06:20:40.082Z,99287.56
2022-12-24T06:23:09.395Z,99279.13
2022-12-24T06:25:39.024Z,99276.00
2022-12-24T06:28:08.500Z,99273.47
2022-12-24T06:30:38.010Z,99272.84
2022-12-24T06:33:07.823Z,99259.84
2022-12-24T06:35:37.082Z,99259.91
2022-12-24T06:38:06.637Z,99253.44
2022-12-24T06:40:36.227Z,99255.22
2022-12-24T06:43:05.713Z,99250.97
2022-12-24T06:45:35.430Z,99248.50
2022-12-24T06:48:05.285Z,99236.53
2022-12-24T06:50:38.075Z,99236.44
2022-12-24T06:53:08.086Z,99222.34
2022-12-24T06:55:38.086Z,99214.72
2022-12-24T06:58:07.830Z,99211.31
2022-12-24T07:00:37.643Z,99204.03
2022-12-24T07:03:07.372Z,99205.28
2022-12-24T07:05:36.759Z,99201.94
2022-12-24T07:08:06.346Z,99198.34
2022-12-24T07:10:36.106Z,99194.00
2022-12-24T07:13:05.589Z,99189.03
2022-12-24T07:15:35.264Z,99186.69
2022-12-24T07:18:04.972Z,99178.66
2022-12-24T07:20:34.328Z,99181.50
2022-12-24T07:23:03.968Z,99170.47
2022-12-24T07:25:33.618Z,99170.56
2022-12-24T07:28:02.924Z,99169.38
2022-12-24T07:30:32.544Z,99161.03
2022-12-24T07:33:01.857Z,99156.88
2022-12-24T07:35:31.257Z,99146.69
2022-12-24T07:38:00.758Z,99143.19
2022-12-24T07:40:30.221Z,99142.41
2022-12-24T07:42:59.767Z,99137.09
2022-12-24T07:45:29.190Z,99132.03
2022-12-24T07:47:59.131Z,99127.69
2022-12-24T07:50:28.882Z,99126.47
2022-12-24T07:52:58.318Z,99116.53
2022-12-24T07:55:28.209Z,99117.47
2022-12-24T07:57:57.858Z,99120.72
2022-12-24T08:00:27.404Z,99105.38
2022-12-24T08:02:57.144Z,99107.16
2022-12-24T08:05:27.679Z,99108.91
2022-12-24T08:07:57.432Z,99100.31
2022-12-24T08:10:26.985Z,99104.66
2022-12-24T08:12:56.470Z,99089.25
2022-12-24T08:15:25.851Z,99094.38
2022-12-24T08:17:55.174Z,99087.53
2022-12-24T08:20:24.751Z,99091.66
2022-12-24T08:22:54.918Z,99085.09
2022-12-24T08:25:24.462Z,99074.00
2022-12-24T08:27:53.787Z,99070.53
2022-12-24T08:30:23.283Z,99062.88
2022-12-24T08:32:52.762Z,99064.56
2022-12-24T08:35:22.763Z,99063.75
2022-12-24T08:37:52.387Z,99060.34
2022-12-24T08:40:22.267Z,99051.78
2022-12-24T08:42:52.180Z,99052.66
2022-12-24T08:45:22.165Z,99041.59
2022-12-24T08:47:51.704Z,99044.13
2022-12-24T08:50:21.207Z,99045.03
2022-12-24T08:52:51.153Z,99044.16
2022-12-24T08:55:20.899Z,99043.28
2022-12-24T08:57:50.401Z,99045.03
2022-12-24T09:00:20.571Z,99039.88
2022-12-24T09:02:50.155Z,99029.59
2022-12-24T09:05:20.017Z,99029.59
2022-12-24T09:07:49.642Z,99027.75
2022-12-24T09:10:19.095Z,99028.72
2022-12-24T09:12:49.094Z,99031.28
2022-12-24T09:15:18.810Z,99027.88
2022-12-24T09:17:48.335Z,99027.03
2022-12-24T09:20:17.759Z,99014.16
2022-12-24T09:22:47.492Z,99024.47
2022-12-24T09:25:18.039Z,99023.59
2022-12-24T09:27:48.271Z,99021.03
2022-12-24T09:30:18.126Z,99021.03
2022-12-24T09:32:47.795Z,99019.34
2022-12-24T09:35:17.188Z,99018.44
2022-12-24T09:37:46.919Z,99009.88
2022-12-24T09:40:27.036Z,99001.31
2022-12-24T09:42:56.794Z,99007.28
2022-12-24T09:45:39.392Z,99003.03
2022-12-24T09:48:25.149Z,99000.44
2022-12-24T09:51:18.128Z,99000.44
2022-12-24T09:54:01.813Z,98988.44
2022-12-24T09:56:46.298Z,98991.88
2022-12-24T09:59:19.302Z,98987.59
2022-12-24T10:01:50.872Z,98984.16
2022-12-24T10:04:24.409Z,98976.44
2022-12-24T10:07:24.187Z,98980.72
2022-12-24T10:10:29.623Z,98975.59
2022-12-24T10:13:26.646Z,98972.16
2022-12-24T10:16:09.445Z,98969.59
2022-12-24T10:18:52.260Z,98965.28
2022-12-24T10:21:58.399Z,98967.88
2022-12-24T10:24:48.108Z,98971.31
2022-12-24T10:27:23.242Z,98967.84
2022-12-24T10:30:02.803Z,98973.00
2022-12-24T10:32:35.762Z,98970.44
2022-12-24T10:35:17.373Z,98967.88
2022-12-24T10:37:50.398Z,98972.16
2022-12-24T10:40:45.940Z,98963.56
2022-12-24T10:43:17.342Z,98956.72
2022-12-24T10:45:54.306Z,98959.28
2022-12-24T10:48:50.478Z,98955.00
2022-12-24T10:51:50.219Z,98957.56
2022-12-24T10:54:26.997Z,98960.13
2022-12-24T10:57:03.736Z,98954.97
2022-12-24T10:59:53.556Z,98938.72
2022-12-24T11:02:37.892Z,98943.00
2022-12-24T11:05:32.836Z,98943.00
2022-12-24T11:08:18.717Z,98940.38
2022-12-24T11:11:02.398Z,98937.81
2022-12-24T11:13:47.637Z,98936.97
2022-12-24T11:16:28.315Z,98936.97
2022-12-24T11:19:03.085Z,98942.91
2022-12-24T11:21:34.747Z,98939.50
2022-12-24T11:24:10.396Z,98945.50
2022-12-24T11:26:40.733Z,98942.91
2022-12-24T11:29:26.626Z,98942.91
2022-12-24T11:32:19.277Z,98945.50
2022-12-24T11:34:49.124Z,98938.59
2022-12-24T11:37:26.235Z,98942.88
2022-12-24T11:40:01.665Z,98938.56
2022-12-24T11:42:41.872Z,98947.13
2022-12-24T11:45:27.426Z,98951.41
2022-12-24T11:47:57.977Z,98950.50
2022-12-24T11:50:36.815Z,98944.56
2022-12-24T11:53:06.306Z,98943.66
2022-12-24T11:55:53.969Z,98945.41
2022-12-24T11:58:50.627Z,98939.38
2022-12-24T12:01:48.175Z,98935.06
2022-12-24T12:04:26.092Z,98936.78
2022-12-24T12:07:17.238Z,98940.16
2022-12-24T12:10:01.334Z,98940.16
2022-12-24T12:12:36.476Z,98939.28
2022-12-24T12:15:17.308Z,98938.38
2022-12-24T12:17:46.823Z,98939.19
2022-12-24T12:20:57.943Z,98946.06
2022-12-24T12:23:38.145Z,98950.28
2022-12-24T12:26:17.141Z,98943.44
2022-12-24T12:29:01.901Z,98952.88
2022-12-24T12:31:37.384Z,98957.09
2022-12-24T12:34:20.390Z,98954.59
2022-12-24T12:37:14.225Z,98959.56
2022-12-24T12:39:44.845Z,98955.31
2022-12-24T12:42:36.499Z,98965.63
2022-12-24T12:45:47.885Z,98964.69
2022-12-24T12:48:23.648Z,98968.06
2022-12-24T12:51:17.159Z,98974.00
2022-12-24T12:53:55.515Z,98981.69
2022-12-24T12:56:35.086Z,98975.75
2022-12-24T12:59:18.763Z,98978.28
2022-12-24T13:01:51.161Z,98979.03
2022-12-24T13:05:18.114Z,98985.13
2022-12-24T13:08:14.729Z,98995.31
2022-12-24T13:11:25.421Z,98999.56
2022-12-24T13:14:06.811Z,98990.91
2022-12-24T13:16:50.763Z,98994.31
2022-12-24T13:20:02.251Z,98996.03
2022-12-24T13:22:32.522Z,98994.16
2022-12-24T13:25:02.696Z,99001.00
2022-12-24T13:27:36.377Z,99002.75
2022-12-24T13:30:41.985Z,99003.69
2022-12-24T13:33:35.653Z,99007.84
2022-12-24T13:36:07.640Z,99006.69
2022-12-24T13:38:50.782Z,99012.91
2022-12-24T13:41:42.253Z,99006.13
2022-12-24T13:44:15.741Z,99013.72
2022-12-24T13:47:00.152Z,99014.44
2022-12-24T13:49:46.283Z,99016.06
2022-12-24T13:52:24.587Z,99005.63
2022-12-24T13:55:00.575Z,99003.19
2022-12-24T13:57:46.177Z,99005.72
2022-12-24T14:00:25.981Z,99003.25
2022-12-24T14:03:08.754Z,99014.31
2022-12-24T14:05:38.327Z,99009.28
2022-12-24T14:08:13.839Z,99010.97
2022-12-24T14:11:13.001Z,99008.34
2022-12-24T14:13:43.238Z,99014.22
2022-12-24T14:16:27.341Z,99009.94
2022-12-24T14:19:11.791Z,99009.97
2022-12-24T14:22:06.648Z,99005.63
2022-12-24T14:24:40.063Z,99012.44
2022-12-24T14:27:34.094Z,99015.84
2022-12-24T14:30:09.864Z,99020.84
2022-12-24T14:32:42.594Z,99020.06
2022-12-24T14:35:37.239Z,99025.19
2022-12-24T14:38:15.615Z,99023.34
2022-12-24T14:41:11.277Z,99026.00
2022-12-24T14:44:08.795Z,99021.81
2022-12-24T14:47:03.564Z,99026.09
2022-12-24T14:50:18.568Z,99024.38
2022-12-24T14:53:11.894Z,99037.16
2022-12-24T14:55:49.867Z,99029.41
2022-12-24T14:58:38.651Z,99038.91
2022-12-24T15:01:30.541Z,99036.41
2022-12-24T15:04:13.040Z,99038.88
2022-12-24T15:06:54.602Z,99034.50
2022-12-24T15:09:30.990Z,99036.25
2022-12-24T15:12:06.808Z,99041.28
2022-12-24T15:14:49.038Z,99044.69
2022-12-24T15:17:23.020Z,99039.50
2022-12-24T15:19:57.944Z,99036.94
2022-12-24T15:22:33.087Z,99044.63
2022-12-24T15:25:04.587Z,99051.41
2022-12-24T15:27:40.472Z,99053.13
2022-12-24T15:30:23.040Z,99045.50
2022-12-24T15:32:59.628Z,99042.75
2022-12-24T15:35:49.214Z,99047.19
2022-12-24T15:38:36.318Z,99045.41
2022-12-24T15:41:30.616Z,99046.19
2022-12-24T15:44:05.318Z,99058.94
2022-12-24T15:46:36.748Z,99057.91
2022-12-24T15:49:07.180Z,99063.78
2022-12-24T15:51:40.877Z,99064.69
2022-12-24T15:54:19.491Z,99069.72
2022-12-24T15:56:50.958Z,99056.72
2022-12-24T15:59:38.528Z,99064.41
2022-12-24T16:02:34.664Z,99067.88
2022-12-24T16:05:31.324Z,99061.84
2022-12-24T16:08:27.466Z,99072.00
2022-12-24T16:11:19.946Z,99076.09
2022-12-24T16:13:53.413Z,99082.22
2022-12-24T16:16:33.879Z,99073.53
2022-12-24T16:19:12.067Z,99071.81
2022-12-24T16:21:47.093Z,99063.28
2022-12-24T16:24:33.224Z,99058.22
2022-12-24T16:27:03.588Z,99064.09
2022-12-24T16:29:35.203Z,99065.75
2022-12-24T16:32:05.777Z,99071.72
2022-12-24T16:34:36.424Z,99069.13
2022-12-24T16:37:12.753Z,99071.50
2022-12-24T16:39:49.900Z,99063.88
2022-12-24T16:42:39.215Z,99068.03
2022-12-24T16:45:15.260Z,99072.13
2022-12-24T16:47:48.363Z,99077.19
2022-12-24T16:50:19.910Z,99089.09
2022-12-24T16:52:53.314Z,99085.81
2022-12-24T16:55:23.639Z,99080.75
2022-12-24T16:57:56.920Z,99081.72
2022-12-24T17:00:30.196Z,99090.31
2022-12-24T17:03:04.653Z,99087.50
2022-12-24T17:05:43.057Z,99087.72
2022-12-24T17:08:15.114Z,99092.72
2022-12-24T17:10:58.352Z,99081.72
2022-12-24T17:13:39.797Z,99074.78
2022-12-24T17:16:12.239Z,99084.22
2022-12-24T17:18:43.012Z,99088.38
2022-12-24T17:21:22.717Z,99087.63
2022-12-24T17:23:55.734Z,99087.50
2022-12-24T17:26:26.320Z,99081.47
2022-12-24T17:28:57.832Z,99083.22
2022-12-24T17:31:37.669Z,99084.13
2022-12-24T17:34:11.054Z,99080.66
2022-12-24T17:36:41.492Z,99074.53
2022-12-24T17:39:11.894Z,99073.53
2022-12-24T17:41:43.652Z,99072.69
2022-12-24T17:44:22.846Z,99063.34
2022-12-24T17:46:54.766Z,99066.72
2022-12-24T17:49:26.380Z,99066.66
2022-12-24T17:51:58.454Z,99061.47
2022-12-24T17:54:33.053Z,99053.78
2022-12-24T17:57:07.549Z,99064.94
2022-12-24T17:59:39.145Z,99060.59
2022-12-24T18:02:11.449Z,99064.97
2022-12-24T18:04:43.020Z,99059.94
2022-12-24T18:07:19.056Z,99061.56
2022-12-24T18:09:53.425Z,99056.53
2022-12-24T18:12:23.822Z,99061.47
2022-12-24T18:14:54.049Z,99061.41
2022-12-24T18:17:24.567Z,99051.97
2022-12-24T18:19:57.793Z,99056.03
2022-12-24T18:22:28.426Z,99053.47
2022-12-24T18:24:58.639Z,99049.25
2022-12-24T18:27:28.932Z,99045.88
2022-12-24T18:30:00.400Z,99041.63
2022-12-24T18:32:30.736Z,99039.94
2022-12-24T18:35:01.126Z,99032.28
2022-12-24T18:37:34.338Z,99027.16
2022-12-24T18:40:05.858Z,99028.03
2022-12-24T18:42:36.365Z,99033.97
2022-12-24T18:45:06.855Z,99026.34
2022-12-24T18:47:36.850Z,99029.78
2022-12-24T18:50:07.026Z,99028.06
2022-12-24T18:52:36.964Z,99026.31
2022-12-24T18:55:06.640Z,99024.56
2022-12-24T18:57:36.633Z,99018.50
2022-12-24T19:00:06.754Z,99021.16
2022-12-24T19:02:36.467Z,99021.97
2022-12-24T19:05:06.568Z,99021.97
2022-12-24T19:07:36.706Z,99016.81
2022-12-24T19:10:06.525Z,99023.56
2022-12-24T19:12:36.539Z,99028.75
2022-12-24T19:15:07.785Z,99027.91
2022-12-24T19:17:37.678Z,99024.34
2022-12-24T19:20:09.348Z,99019.31
2022-12-24T19:22:39.008Z,99025.38
2022-12-24T19:25:08.965Z,99022.00
2022-12-24T19:27:38.259Z,99024.47
2022-12-24T19:30:08.690Z,99031.31
2022-12-24T19:32:39.012Z,99027.88
2022-12-24T19:35:08.920Z,99025.28
2022-12-24T19:37:38.449Z,99027.84
2022-12-24T19:40:09.253Z,99026.13
2022-12-24T19:42:38.722Z,99021.75
2022-12-24T19:45:11.775Z,99026.81
2022-12-24T19:47:41.207Z,99024.97
2022-12-24T19:50:11.263Z,99027.44
2022-12-24T19:52:40.841Z,99025.66
2022-12-24T19:55:11.897Z,99029.13
2022-12-24T19:57:41.408Z,99026.47
2022-12-24T20:00:11.836Z,99024.84
2022-12-24T20:02:41.378Z,99024.88
2022-12-24T20:05:11.050Z,99034.38
2022-12-24T20:07:40.502Z,99027.44
2022-12-24T20:10:10.883Z,99023.25
2022-12-24T20:12:40.515Z,99028.31
2022-12-24T20:15:10.475Z,99025.84
2022-12-24T20:17:40.060Z,99031.63
2022-12-24T20:20:10.187Z,99026.78
2022-12-24T20:22:39.862Z,99032.31
2022-12-24T20:25:10.410Z,99043.94
2022-12-24T20:27:40.258Z,99050.75
2022-12-24T20:30:10.457Z,99051.00
2022-12-24T20:32:40.015Z,99045.59
2022-12-24T20:35:10.123Z,99043.84
2022-12-24T20:37:45.746Z,99043.16
2022-12-24T20:40:16.510Z,99045.72
2022-12-24T20:42:46.063Z,99044.16
2022-12-24T20:45:15.745Z,99035.94
2022-12-24T20:47:47.629Z,99030.31
2022-12-24T20:50:17.571Z,99042.13
2022-12-24T20:52:47.251Z,99040.63
2022-12-24T20:55:18.406Z,99045.03
2022-12-24T20:57:51.008Z,99039.22
2022-12-24T21:00:21.093Z,99041.66
2022-12-24T21:02:50.883Z,99040.78
2022-12-24T21:05:21.582Z,99043.47
2022-12-24T21:07:51.022Z,99045.41
2022-12-24T21:10:20.576Z,99039.53
2022-12-24T21:12:58.155Z,99040.53
2022-12-24T21:15:31.102Z,99038.06
2022-12-24T21:18:01.842Z,99035.41
2022-12-24T21:20:31.756Z,99040.47
2022-12-24T21:23:02.872Z,99041.44
2022-12-24T21:25:32.386Z,99040.47
2022-12-24T21:28:01.918Z,99043.94
2022-12-24T21:30:33.328Z,99042.19
2022-12-24T21:33:02.845Z,99039.75
2022-12-24T21:35:32.361Z,99040.56
2022-12-24T21:38:01.817Z,99041.97
2022-12-24T21:40:31.713Z,99036.72
2022-12-24T21:43:01.265Z,99049.75
2022-12-24T21:45:30.851Z,99050.50
2022-12-24T21:48:20.286Z,99051.47
2022-12-24T21:50:59.245Z,99050.78
2022-12-24T21:53:47.428Z,99046.13
2022-12-24T21:56:16.825Z,99056.59
2022-12-24T21:58:46.532Z,99050.09
2022-12-24T22:01:16.094Z,99059.78
2022-12-24T22:03:48.872Z,99054.59
2022-12-24T22:06:36.958Z,99059.00
2022-12-24T22:09:24.607Z,99055.41
2022-12-24T22:11:55.162Z,99048.50
2022-12-24T22:14:24.833Z,99045.97
2022-12-24T22:16:54.313Z,99039.34
2022-12-24T22:19:23.705Z,99047.00
2022-12-24T22:21:53.415Z,99040.22
2022-12-24T22:24:22.940Z,99027.44
2022-12-24T22:26:52.389Z,99030.25
2022-12-24T22:29:21.804Z,99034.31
2022-12-24T22:31:51.462Z,99024.28
2022-12-24T22:34:20.761Z,99024.41
2022-12-24T22:36:50.337Z,99019.28
2022-12-24T22:39:20.101Z,99019.81
2022-12-24T22:41:49.572Z,99005.50
2022-12-24T22:44:19.207Z,99006.69
2022-12-24T22:46:48.773Z,98997.31
2022-12-24T22:49:18.051Z,98990.41
2022-12-24T22:51:47.724Z,98992.47
2022-12-24T22:54:17.167Z,98995.84
2022-12-24T22:56:47.113Z,98985.56
2022-12-24T22:59:16.818Z,98980.03
2022-12-24T23:01:48.440Z,98979.97
2022-12-24T23:04:18.197Z,98973.38
2022-12-24T23:06:47.720Z,98964.56
2022-12-24T23:09:18.577Z,98961.94
2022-12-24T23:11:48.281Z,98968.44
2022-12-24T23:14:40.589Z,98965.03
2022-12-24T23:17:10.864Z,98966.47
2022-12-24T23:19:40.741Z,98963.50
2022-12-24T23:22:11.689Z,98958.63
2022-12-24T23:24:42.572Z,98960.47
2022-12-24T23:27:12.182Z,98963.41
2022-12-24T23:29:42.445Z,98968.78
2022-12-24T23:32:11.813Z,98966.75
2022-12-24T23:34:41.736Z,98958.69
2022-12-24T23:37:11.124Z,98968.56
2022-12-24T23:39:40.802Z,98979.28
2022-12-24T23:42:10.394Z,98972.50
2022-12-24T23:44:39.794Z,98973.91
2022-12-24T23:47:09.862Z,98975.47
2022-12-24T23:49:39.227Z,98967.97
2022-12-24T23:52:08.706Z,98970.16
2022-12-24T23:54:38.430Z,98975.75
2022-12-24T23:57:07.976Z,98981.06
2022-12-24T23:59:37.464Z,98982.13
